Time;durP1;ratioP1;P1;durP2;ratioP2;P2;SDS_P1;SDS_P2;PMS_P1;PMS_P2;Temp;Humidity;BMP_temperature;BMP_pressure;BME280_temperature;BME280_humidity;BME280_pressure;Samples;Min_cycle;Max_cycle;Signal;HPM_P1;HPM_P2
2022/07/17 00:00:26;;;;;;;6.63;3.63;;;19.60;99.90;;;;;;4956040;29;20177;-60
2022/07/17 00:02:52;;;;;;;10.32;3.40;;;19.50;99.90;;;;;;4956101;29;20196;-60
2022/07/17 00:05:19;;;;;;;4.93;2.92;;;19.50;99.90;;;;;;4956011;28;20220;-60
2022/07/17 00:07:47;;;;;;;6.63;3.40;;;19.50;99.90;;;;;;4956195;29;20172;-60
2022/07/17 00:10:12;;;;;;;4.82;3.13;;;19.50;99.90;;;;;;4955896;29;20216;-60
2022/07/17 00:12:38;;;;;;;5.75;3.40;;;19.50;99.90;;;;;;4955988;29;20223;-60
2022/07/17 00:15:04;;;;;;;7.97;3.67;;;19.50;99.90;;;;;;4955680;29;20720;-59
2022/07/17 00:17:30;;;;;;;8.85;3.35;;;19.40;99.90;;;;;;4955791;29;20169;-59
2022/07/17 00:19:56;;;;;;;5.80;3.42;;;19.90;99.90;;;;;;4955797;29;20176;-59
2022/07/17 00:22:22;;;;;;;6.50;3.83;;;19.30;99.90;;;;;;4955708;29;20268;-59
2022/07/17 00:24:48;;;;;;;5.95;3.58;;;19.30;99.90;;;;;;4955655;28;20207;-60
2022/07/17 00:27:13;;;;;;;4.40;3.65;;;19.30;99.90;;;;;;4955611;28;20585;-59
2022/07/17 00:29:39;;;;;;;4.50;3.22;;;19.30;99.90;;;;;;4955517;29;20179;-59
2022/07/17 00:32:05;;;;;;;6.88;3.60;;;19.20;99.90;;;;;;4955604;29;20172;-59
2022/07/17 00:34:32;;;;;;;6.40;3.50;;;19.20;99.90;;;;;;4955566;29;20169;-59
2022/07/17 00:36:58;;;;;;;5.38;3.10;;;19.10;99.90;;;;;;4955492;29;20263;-60
2022/07/17 00:39:24;;;;;;;8.57;3.63;;;19.10;99.90;;;;;;4955412;29;20579;-59
2022/07/17 00:41:50;;;;;;;7.53;3.80;;;19.10;99.90;;;;;;4955395;29;20640;-60
2022/07/17 00:44:16;;;;;;;5.35;3.28;;;19.10;99.90;;;;;;4955271;29;20173;-59
2022/07/17 00:46:42;;;;;;;7.78;3.25;;;19.00;99.90;;;;;;4955157;29;20188;-59
2022/07/17 00:49:08;;;;;;;6.88;3.45;;;19.00;99.90;;;;;;4955540;29;20165;-61
2022/07/17 00:51:34;;;;;;;5.97;3.50;;;19.00;99.90;;;;;;4955388;29;20177;-59
2022/07/17 00:54:02;;;;;;;6.05;3.38;;;19.00;99.90;;;;;;4955315;29;20216;-60
2022/07/17 00:56:28;;;;;;;6.82;4.03;;;18.90;99.90;;;;;;4955217;29;20211;-59
2022/07/17 00:58:55;;;;;;;11.50;3.83;;;19.00;99.90;;;;;;4955085;29;20172;-59
2022/07/17 01:01:21;;;;;;;3.97;3.25;;;18.90;99.90;;;;;;4955119;29;20183;-60
2022/07/17 01:03:48;;;;;;;7.55;3.55;;;18.90;99.90;;;;;;4955094;29;20216;-59
2022/07/17 01:06:14;;;;;;;8.98;3.20;;;18.90;99.90;;;;;;4955031;29;20263;-59
2022/07/17 01:08:40;;;;;;;5.55;3.85;;;18.90;99.90;;;;;;4954813;28;20256;-60
2022/07/17 01:11:08;;;;;;;11.02;4.07;;;18.90;99.90;;;;;;4954937;29;20187;-59
2022/07/17 01:13:34;;;;;;;7.20;3.45;;;18.80;99.90;;;;;;4954932;29;20169;-60
2022/07/17 01:16:00;;;;;;;6.30;3.83;;;18.80;99.90;;;;;;4954576;29;20340;-59
2022/07/17 01:18:26;;;;;;;8.63;4.07;;;18.80;99.90;;;;;;4954971;29;20172;-59
2022/07/17 01:20:52;;;;;;;5.18;3.78;;;18.80;99.90;;;;;;4954731;29;20557;-59
2022/07/17 01:23:19;;;;;;;4.78;3.42;;;18.80;99.90;;;;;;4954685;29;20185;-60
2022/07/17 01:25:46;;;;;;;5.03;3.75;;;18.80;99.90;;;;;;4954552;29;20220;-60
2022/07/17 01:28:12;;;;;;;18.45;3.80;;;18.70;99.90;;;;;;4954417;29;20210;-60
2022/07/17 01:30:46;;;;;;;10.10;3.90;;;18.70;99.90;;;;;;4954500;29;20180;-58
2022/07/17 01:33:12;;;;;;;7.15;3.78;;;18.70;99.90;;;;;;4954404;29;20177;-59
2022/07/17 01:35:38;;;;;;;6.05;4.10;;;18.60;99.90;;;;;;4954360;29;20173;-59
2022/07/17 01:38:04;;;;;;;6.85;4.00;;;18.60;99.90;;;;;;4954352;29;20173;-60
2022/07/17 01:40:30;;;;;;;7.97;4.00;;;18.50;99.90;;;;;;4953723;28;20187;-59
2022/07/17 01:42:56;;;;;;;7.30;3.97;;;18.50;99.90;;;;;;4954366;29;20172;-59
2022/07/17 01:45:21;;;;;;;6.88;4.25;;;18.50;99.90;;;;;;4954129;29;20219;-60
2022/07/17 01:47:48;;;;;;;5.32;3.80;;;18.50;99.90;;;;;;4954127;29;20523;-59
2022/07/17 01:50:15;;;;;;;9.50;4.13;;;18.50;99.90;;;;;;4954080;29;20173;-59
2022/07/17 01:52:42;;;;;;;5.85;4.07;;;18.50;99.90;;;;;;4954190;29;20259;-59
2022/07/17 01:55:10;;;;;;;6.63;4.10;;;18.40;99.90;;;;;;4953974;29;20173;-59
2022/07/17 01:57:36;;;;;;;5.05;4.10;;;18.40;99.90;;;;;;4953901;29;20249;-59
2022/07/17 02:00:11;;;;;;;7.32;4.07;;;18.40;99.90;;;;;;4954214;28;20264;-59
2022/07/17 02:02:37;;;;;;;6.43;4.47;;;18.40;99.90;;;;;;4953839;29;20176;-60
2022/07/17 02:05:04;;;;;;;6.63;4.07;;;18.40;99.90;;;;;;4953786;28;20267;-59
2022/07/17 02:07:31;;;;;;;7.03;4.25;;;18.40;99.90;;;;;;4953823;29;20180;-58
2022/07/17 02:09:57;;;;;;;7.95;4.20;;;18.40;99.90;;;;;;4953872;29;20189;-59
2022/07/17 02:12:22;;;;;;;7.95;4.53;;;18.40;99.90;;;;;;4953714;29;20176;-59
2022/07/17 02:14:48;;;;;;;9.32;4.63;;;18.40;99.90;;;;;;4953653;28;20713;-58
2022/07/17 02:17:14;;;;;;;6.30;4.63;;;18.40;99.90;;;;;;4953740;29;20694;-59
2022/07/17 02:19:40;;;;;;;7.80;4.72;;;18.40;99.90;;;;;;4953746;29;20199;-60
2022/07/17 02:22:06;;;;;;;7.22;4.63;;;18.40;99.90;;;;;;4953639;29;20297;-59
2022/07/17 02:24:32;;;;;;;9.57;4.30;;;18.40;99.90;;;;;;4953473;29;20208;-60
2022/07/17 02:26:58;;;;;;;8.20;4.70;;;18.40;99.90;;;;;;4953433;29;20196;-59
2022/07/17 02:29:23;;;;;;;7.35;4.20;;;18.40;99.90;;;;;;4953621;29;20169;-60
2022/07/17 02:31:50;;;;;;;7.72;4.40;;;18.30;99.90;;;;;;4953460;29;20177;-60
2022/07/17 02:34:15;;;;;;;9.73;4.05;;;18.20;99.90;;;;;;4953438;29;20168;-59
2022/07/17 02:36:41;;;;;;;6.20;4.18;;;18.20;99.90;;;;;;4953341;28;20192;-59
2022/07/17 02:39:07;;;;;;;7.55;4.43;;;18.20;99.90;;;;;;4953272;29;20632;-59
2022/07/17 02:41:33;;;;;;;7.07;3.97;;;18.20;99.90;;;;;;4953360;29;20176;-60
2022/07/17 02:43:59;;;;;;;5.72;3.83;;;18.10;99.90;;;;;;4953241;29;20652;-60
2022/07/17 02:46:25;;;;;;;5.47;3.90;;;18.10;99.90;;;;;;4953239;29;20222;-60
2022/07/17 02:48:50;;;;;;;6.38;4.25;;;18.00;99.90;;;;;;4953257;29;20537;-60
2022/07/17 02:51:16;;;;;;;10.45;4.10;;;18.00;99.90;;;;;;4953019;29;20176;-59
2022/07/17 02:53:42;;;;;;;8.38;4.05;;;18.00;99.90;;;;;;4953544;29;20667;-60
2022/07/17 02:56:08;;;;;;;5.03;3.65;;;17.90;99.90;;;;;;4954043;29;20272;-60
2022/07/17 02:58:33;;;;;;;5.43;3.65;;;17.90;99.90;;;;;;4953350;29;20662;-59
2022/07/17 03:00:59;;;;;;;5.28;3.72;;;17.90;99.90;;;;;;4953082;29;20605;-59
2022/07/17 03:03:25;;;;;;;6.60;3.50;;;17.90;99.90;;;;;;4952986;29;20224;-60
2022/07/17 03:05:51;;;;;;;7.28;3.70;;;17.80;99.90;;;;;;4952898;29;20211;-59
2022/07/17 03:08:17;;;;;;;6.18;3.90;;;17.80;99.90;;;;;;4952998;29;20183;-60
2022/07/17 03:10:43;;;;;;;5.85;3.58;;;17.70;99.90;;;;;;4952973;29;20235;-60
2022/07/17 03:13:08;;;;;;;6.47;4.43;;;17.70;99.90;;;;;;4952938;29;20227;-60
2022/07/17 03:15:34;;;;;;;6.32;3.70;;;17.60;99.90;;;;;;4952821;29;20264;-59
2022/07/17 03:18:00;;;;;;;7.03;3.50;;;17.60;99.90;;;;;;4952918;29;20289;-60
2022/07/17 03:20:26;;;;;;;6.75;3.50;;;17.60;99.90;;;;;;4952691;29;20271;-59
2022/07/17 03:22:52;;;;;;;6.05;4.00;;;17.50;99.90;;;;;;4951464;29;20179;-59
2022/07/17 03:25:18;;;;;;;7.47;3.80;;;17.50;99.90;;;;;;4952803;29;20204;-59
2022/07/17 03:27:43;;;;;;;4.82;3.53;;;17.50;99.90;;;;;;4952982;29;20184;-59
2022/07/17 03:30:09;;;;;;;7.10;4.05;;;17.50;99.90;;;;;;4952797;29;20213;-59
2022/07/17 03:32:35;;;;;;;8.23;3.97;;;17.50;99.90;;;;;;4952763;29;20677;-59
2022/07/17 03:35:04;;;;;;;6.00;3.67;;;17.60;99.90;;;;;;4952658;29;20205;-59
2022/07/17 03:37:30;;;;;;;6.95;3.63;;;17.50;99.90;;;;;;4952752;29;20194;-59
2022/07/17 03:39:56;;;;;;;5.75;3.67;;;17.50;99.90;;;;;;4952746;29;20168;-59
2022/07/17 03:42:21;;;;;;;5.82;3.13;;;17.50;99.90;;;;;;4952630;29;20263;-59
2022/07/17 03:44:47;;;;;;;4.35;3.15;;;17.50;99.90;;;;;;4952654;29;20208;-59
2022/07/17 03:47:13;;;;;;;7.22;3.75;;;17.50;99.90;;;;;;4952562;29;20181;-59
2022/07/17 03:49:39;;;;;;;7.35;3.80;;;17.40;99.90;;;;;;4952506;29;20228;-59
2022/07/17 03:52:05;;;;;;;5.45;3.70;;;17.40;99.90;;;;;;4952618;29;20176;-59
2022/07/17 03:54:31;;;;;;;5.68;4.15;;;17.40;99.90;;;;;;4952573;29;20256;-59
2022/07/17 03:56:57;;;;;;;7.07;3.38;;;17.40;99.90;;;;;;4952584;29;20177;-59
2022/07/17 03:59:23;;;;;;;7.07;3.33;;;17.40;99.90;;;;;;4952593;29;20173;-60
2022/07/17 04:01:49;;;;;;;8.18;3.42;;;17.40;99.90;;;;;;4952588;28;20235;-59
2022/07/17 04:04:14;;;;;;;6.85;3.55;;;17.40;99.90;;;;;;4955780;29;20172;-59
2022/07/17 04:06:40;;;;;;;4.43;3.28;;;17.40;99.90;;;;;;4956019;29;20659;-59
2022/07/17 04:09:06;;;;;;;4.70;3.30;;;17.40;99.90;;;;;;4956126;29;20662;-60
2022/07/17 04:11:32;;;;;;;6.13;3.25;;;17.50;99.90;;;;;;4955948;29;20187;-59
2022/07/17 04:13:58;;;;;;;6.60;3.30;;;17.50;99.90;;;;;;4954581;29;20173;-59
2022/07/17 04:16:23;;;;;;;4.78;2.85;;;17.50;99.90;;;;;;4955944;29;20658;-59
2022/07/17 04:18:49;;;;;;;6.82;2.92;;;17.50;99.90;;;;;;4955849;29;20183;-60
2022/07/17 04:21:15;;;;;;;9.43;3.30;;;17.50;99.90;;;;;;4956303;29;20172;-59
2022/07/17 04:23:41;;;;;;;4.80;3.08;;;17.50;99.90;;;;;;4955931;29;20263;-59
2022/07/17 04:26:07;;;;;;;7.57;3.33;;;17.50;99.90;;;;;;4955710;29;20244;-59
2022/07/17 04:28:33;;;;;;;5.30;3.75;;;17.50;99.90;;;;;;4955740;29;20309;-59
2022/07/17 04:31:00;;;;;;;5.20;3.10;;;17.60;99.90;;;;;;4955589;29;20308;-59
2022/07/17 04:33:26;;;;;;;4.53;3.03;;;17.60;99.90;;;;;;4955452;29;20176;-59
2022/07/17 04:35:53;;;;;;;8.35;3.10;;;17.60;99.90;;;;;;4955722;28;20180;-60
2022/07/17 04:38:19;;;;;;;8.07;3.15;;;17.60;99.90;;;;;;4955488;29;20169;-61
2022/07/17 04:40:46;;;;;;;6.32;3.03;;;17.60;99.90;;;;;;4955882;29;20259;-60
2022/07/17 04:43:12;;;;;;;8.80;3.00;;;17.60;99.90;;;;;;4955505;28;20526;-60
2022/07/17 04:45:38;;;;;;;8.60;3.30;;;17.60;99.90;;;;;;4955301;29;20234;-59
2022/07/17 04:48:04;;;;;;;5.68;3.35;;;17.60;99.90;;;;;;4955685;28;20173;-59
2022/07/17 04:50:30;;;;;;;9.38;2.80;;;17.60;99.90;;;;;;4955315;29;20173;-60
2022/07/17 04:52:57;;;;;;;4.60;3.00;;;17.60;99.90;;;;;;4955349;28;20532;-61
2022/07/17 04:55:23;;;;;;;4.22;2.63;;;17.70;99.90;;;;;;4955061;29;20183;-59
2022/07/17 04:57:49;;;;;;;6.75;3.10;;;17.70;99.90;;;;;;4955248;29;20195;-59
2022/07/17 05:00:15;;;;;;;3.80;2.70;;;17.70;99.90;;;;;;4955123;28;20647;-60
2022/07/17 05:02:41;;;;;;;5.18;2.58;;;17.70;99.90;;;;;;4955025;29;20180;-60
2022/07/17 05:05:07;;;;;;;4.25;2.50;;;17.80;99.90;;;;;;4955179;29;20219;-59
2022/07/17 05:07:33;;;;;;;5.45;2.65;;;17.80;99.90;;;;;;4954845;29;20169;-59
2022/07/17 05:09:59;;;;;;;8.57;2.63;;;17.80;99.90;;;;;;4954913;29;20177;-59
2022/07/17 05:12:25;;;;;;;5.93;2.50;;;17.90;99.90;;;;;;4954960;29;20193;-60
2022/07/17 05:14:51;;;;;;;4.03;2.40;;;17.90;99.90;;;;;;4953780;28;20240;-61
2022/07/17 05:17:17;;;;;;;3.85;2.03;;;17.90;99.90;;;;;;4954780;28;20585;-60
2022/07/17 05:19:43;;;;;;;4.03;1.90;;;17.90;99.90;;;;;;4954722;29;20172;-61
2022/07/17 05:22:09;;;;;;;4.13;2.17;;;17.90;99.90;;;;;;4954768;29;20169;-60
2022/07/17 05:24:34;;;;;;;5.07;2.20;;;18.00;99.90;;;;;;4954604;29;20203;-60
2022/07/17 05:27:01;;;;;;;3.97;2.30;;;18.00;99.90;;;;;;4954722;29;20555;-61
2022/07/17 05:29:27;;;;;;;4.57;2.05;;;18.00;99.90;;;;;;4954695;29;20191;-59
2022/07/17 05:31:53;;;;;;;4.05;2.13;;;18.00;99.90;;;;;;4954497;29;20259;-60
2022/07/17 05:34:19;;;;;;;3.70;2.08;;;18.00;99.90;;;;;;4954715;28;20180;-59
2022/07/17 05:36:45;;;;;;;5.78;2.25;;;18.00;99.90;;;;;;4954380;29;20543;-60
2022/07/17 05:39:12;;;;;;;5.45;2.15;;;18.00;99.90;;;;;;4954465;29;20263;-60
2022/07/17 05:41:38;;;;;;;7.50;1.98;;;18.10;99.90;;;;;;4954317;29;20196;-59
2022/07/17 05:44:04;;;;;;;6.65;2.08;;;18.20;99.90;;;;;;4954381;29;20200;-59
2022/07/17 05:46:30;;;;;;;6.30;1.92;;;18.10;99.90;;;;;;4954111;29;20208;-59
2022/07/17 05:48:56;;;;;;;5.32;2.08;;;18.10;99.90;;;;;;4954301;29;20172;-59
2022/07/17 05:51:22;;;;;;;5.10;2.03;;;18.10;99.90;;;;;;4954036;29;20639;-60
2022/07/17 05:53:48;;;;;;;6.90;2.08;;;18.10;99.90;;;;;;4954059;28;20259;-60
2022/07/17 05:56:13;;;;;;;3.78;2.03;;;18.20;99.90;;;;;;4954120;29;20239;-59
2022/07/17 05:58:39;;;;;;;4.20;1.70;;;18.30;99.90;;;;;;4952934;29;20678;-59
2022/07/17 06:01:05;;;;;;;4.07;2.17;;;18.30;99.90;;;;;;4954044;28;20659;-59
2022/07/17 06:03:31;;;;;;;3.88;2.00;;;18.40;99.90;;;;;;4953996;29;20172;-59
2022/07/17 06:05:57;;;;;;;7.68;2.42;;;18.50;99.90;;;;;;4953916;29;20336;-60
2022/07/17 06:08:23;;;;;;;3.78;2.20;;;18.40;99.90;;;;;;4953895;29;20181;-60
2022/07/17 06:10:48;;;;;;;3.60;2.03;;;18.50;99.90;;;;;;4953884;29;20172;-60
2022/07/17 06:13:14;;;;;;;6.43;2.50;;;18.50;99.90;;;;;;4953828;29;20173;-58
2022/07/17 06:15:40;;;;;;;6.28;2.25;;;18.60;99.90;;;;;;4953498;29;20236;-59
2022/07/17 06:18:06;;;;;;;4.80;2.38;;;18.70;99.90;;;;;;4953811;29;20650;-60
2022/07/17 06:20:32;;;;;;;6.10;2.42;;;18.70;99.90;;;;;;4953808;29;20212;-60
2022/07/17 06:22:58;;;;;;;6.45;2.97;;;18.70;99.90;;;;;;4953659;28;20640;-59
2022/07/17 06:25:24;;;;;;;7.78;2.60;;;18.70;99.90;;;;;;4953665;28;20294;-60
2022/07/17 06:27:50;;;;;;;7.35;2.40;;;19.10;99.90;;;;;;4953507;29;20169;-60
2022/07/17 06:30:16;;;;;;;6.22;2.90;;;18.80;99.90;;;;;;4953337;29;20203;-60
2022/07/17 06:32:42;;;;;;;8.43;2.65;;;18.80;99.90;;;;;;4953376;29;20169;-59
2022/07/17 06:35:09;;;;;;;7.45;2.83;;;18.80;99.90;;;;;;4953304;29;20235;-58
2022/07/17 06:37:35;;;;;;;5.97;3.13;;;18.90;99.90;;;;;;4953492;29;20259;-58
2022/07/17 06:40:01;;;;;;;6.93;2.72;;;18.90;99.90;;;;;;4953406;29;20204;-57
2022/07/17 06:42:27;;;;;;;8.05;3.17;;;19.00;99.90;;;;;;4953598;28;20259;-59
2022/07/17 06:44:53;;;;;;;8.45;3.35;;;19.10;99.90;;;;;;4953145;29;20585;-60
2022/07/17 06:47:19;;;;;;;4.90;2.90;;;19.10;99.90;;;;;;4953348;29;20224;-60
2022/07/17 06:49:45;;;;;;;6.20;3.08;;;19.20;99.90;;;;;;4953153;29;20173;-59
2022/07/17 06:52:11;;;;;;;8.18;3.10;;;19.20;99.90;;;;;;4953276;29;20208;-60
2022/07/17 06:54:36;;;;;;;8.68;3.42;;;19.30;99.90;;;;;;4952118;29;20605;-60
2022/07/17 06:57:03;;;;;;;6.38;3.50;;;19.40;99.90;;;;;;4953178;29;20256;-60
2022/07/17 06:59:28;;;;;;;7.68;3.10;;;19.50;99.90;;;;;;4953274;29;20259;-60
2022/07/17 07:01:54;;;;;;;12.18;3.35;;;19.60;99.90;;;;;;4953065;29;20275;-61
2022/07/17 07:04:20;;;;;;;5.70;3.13;;;19.70;99.90;;;;;;4953173;29;20183;-60
2022/07/17 07:06:46;;;;;;;7.60;3.67;;;19.80;99.90;;;;;;4952947;29;20577;-59
2022/07/17 07:09:12;;;;;;;7.63;3.38;;;19.90;99.90;;;;;;4952961;29;20177;-59
2022/07/17 07:11:38;;;;;;;6.35;3.03;;;20.00;99.90;;;;;;4952907;29;20212;-60
2022/07/17 07:14:05;;;;;;;11.93;3.60;;;20.10;99.90;;;;;;4952805;29;20204;-60
2022/07/17 07:16:31;;;;;;;11.13;3.63;;;20.00;99.90;;;;;;4953089;28;20188;-60
2022/07/17 07:18:57;;;;;;;7.80;3.10;;;20.10;99.90;;;;;;4952711;29;20173;-60
2022/07/17 07:21:25;;;;;;;7.35;3.30;;;20.20;99.90;;;;;;4952955;29;20183;-61
2022/07/17 07:23:51;;;;;;;7.30;3.38;;;20.40;99.90;;;;;;4951411;29;20187;-61
2022/07/17 07:26:17;;;;;;;9.25;3.40;;;20.50;99.90;;;;;;4952688;29;20683;-60
2022/07/17 07:28:43;;;;;;;6.93;3.25;;;20.50;99.90;;;;;;4952720;29;20172;-60
2022/07/17 07:31:10;;;;;;;9.50;3.17;;;20.60;99.90;;;;;;4952861;29;20169;-60
2022/07/17 07:33:36;;;;;;;9.88;3.53;;;20.60;99.90;;;;;;4952828;29;20184;-60
2022/07/17 07:36:02;;;;;;;6.80;3.85;;;20.70;99.90;;;;;;4952757;29;20191;-61
2022/07/17 07:38:28;;;;;;;5.72;3.67;;;20.80;99.90;;;;;;4955034;28;20179;-60
2022/07/17 07:40:54;;;;;;;8.88;3.58;;;20.80;99.90;;;;;;4956421;29;20184;-60
2022/07/17 07:43:20;;;;;;;11.90;3.75;;;20.90;99.90;;;;;;4956462;29;20169;-60
2022/07/17 07:45:46;;;;;;;10.10;3.97;;;21.10;99.90;;;;;;4956240;29;20235;-60
2022/07/17 07:48:12;;;;;;;10.10;3.88;;;21.10;99.90;;;;;;4956338;29;20208;-60
2022/07/17 07:50:38;;;;;;;12.48;3.50;;;21.20;99.90;;;;;;4956325;28;20259;-61
2022/07/17 07:53:05;;;;;;;9.05;3.13;;;21.40;99.90;;;;;;4956546;29;20715;-60
2022/07/17 07:55:31;;;;;;;8.30;3.28;;;21.50;99.90;;;;;;4954891;28;20183;-60
2022/07/17 07:58:09;;;;;;;9.13;3.00;;;21.70;99.90;;;;;;4956211;29;20169;-60
2022/07/17 08:00:35;;;;;;;6.70;3.05;;;21.70;99.90;;;;;;4956201;29;20172;-60
2022/07/17 08:03:01;;;;;;;13.88;3.13;;;21.90;99.90;;;;;;4956124;29;20172;-60
2022/07/17 08:05:27;;;;;;;7.32;2.90;;;22.00;99.90;;;;;;4956029;29;20213;-61
2022/07/17 08:07:53;;;;;;;4.65;2.60;;;22.00;99.90;;;;;;4956176;29;20172;-61
2022/07/17 08:10:19;;;;;;;7.40;2.60;;;22.10;99.90;;;;;;4956027;29;20185;-60
2022/07/17 08:12:45;;;;;;;6.25;2.70;;;22.20;99.90;;;;;;4955931;29;20632;-61
2022/07/17 08:15:11;;;;;;;6.60;2.80;;;22.30;99.90;;;;;;4955747;29;20258;-60
2022/07/17 08:17:37;;;;;;;4.35;2.42;;;22.40;99.90;;;;;;4955913;29;20624;-60
2022/07/17 08:20:03;;;;;;;9.15;2.85;;;22.60;99.90;;;;;;4955863;29;20180;-60
2022/07/17 08:22:29;;;;;;;9.30;3.20;;;22.70;99.90;;;;;;4955733;29;20180;-60
2022/07/17 08:24:55;;;;;;;7.63;2.63;;;22.80;99.90;;;;;;4955786;29;20220;-60
2022/07/17 08:27:22;;;;;;;6.18;2.97;;;23.00;99.90;;;;;;4955765;29;20255;-60
2022/07/17 08:29:48;;;;;;;5.78;2.75;;;23.10;99.90;;;;;;4955551;29;20263;-60
2022/07/17 08:32:13;;;;;;;9.07;2.75;;;23.30;99.90;;;;;;4955745;29;20315;-61
2022/07/17 08:34:39;;;;;;;7.90;2.70;;;23.60;99.90;;;;;;4955529;29;20667;-60
2022/07/17 08:37:05;;;;;;;5.70;2.47;;;23.60;99.90;;;;;;4955535;29;20176;-59
2022/07/17 08:39:31;;;;;;;6.70;2.30;;;23.60;99.90;;;;;;4955707;29;20183;-60
2022/07/17 08:41:57;;;;;;;7.15;2.50;;;23.90;99.90;;;;;;4955537;29;20576;-61
2022/07/17 08:44:23;;;;;;;5.50;1.85;;;24.30;99.90;;;;;;4955335;29;20187;-60
2022/07/17 08:46:49;;;;;;;3.80;2.10;;;24.40;99.90;;;;;;4955369;29;20193;-60
2022/07/17 08:49:20;;;;;;;3.83;1.77;;;24.60;99.90;;;;;;4954005;28;20168;-60
2022/07/17 08:51:46;;;;;;;5.38;1.73;;;24.80;99.90;;;;;;4955279;28;20185;-60
2022/07/17 08:54:12;;;;;;;5.32;2.05;;;24.60;99.90;;;;;;4955222;29;20276;-60
2022/07/17 08:56:38;;;;;;;7.25;1.80;;;25.10;99.90;;;;;;4955287;29;20173;-60
2022/07/17 08:59:04;;;;;;;8.85;1.80;;;25.90;99.90;;;;;;4955192;29;20176;-61
2022/07/17 09:01:30;;;;;;;6.55;2.13;;;25.90;99.90;;;;;;4955011;29;20587;-61
2022/07/17 09:03:58;;;;;;;4.63;1.60;;;26.00;99.90;;;;;;4954927;29;20184;-60
2022/07/17 09:06:24;;;;;;;6.72;1.92;;;26.10;99.90;;;;;;4954675;29;20227;-60
2022/07/17 09:09:12;;;;;;;3.33;1.80;;;26.30;99.90;;;;;;4955164;29;20172;-59
2022/07/17 09:11:52;;;;;;;6.10;1.85;;;26.30;99.90;;;;;;4955057;29;20296;-60
2022/07/17 09:14:20;;;;;;;6.95;1.75;;;26.30;99.90;;;;;;4954700;29;20234;-60
2022/07/17 09:17:01;;;;;;;8.10;1.80;;;26.30;99.90;;;;;;4954852;29;20215;-60
2022/07/17 09:19:32;;;;;;;10.10;1.77;;;26.20;99.90;;;;;;4954733;28;20251;-61
2022/07/17 09:22:17;;;;;;;3.75;1.60;;;26.70;99.90;;;;;;4954980;28;20640;-61
2022/07/17 09:24:54;;;;;;;3.95;1.90;;;27.10;99.90;;;;;;4954413;29;20216;-60
2022/07/17 09:27:23;;;;;;;7.90;1.80;;;27.20;99.90;;;;;;4954433;29;20183;-60
2022/07/17 09:29:57;;;;;;;3.60;1.58;;;27.60;99.90;;;;;;4954566;29;20173;-61
2022/07/17 09:32:26;;;;;;;6.10;1.88;;;27.30;99.90;;;;;;4954564;29;20647;-60
2022/07/17 09:34:55;;;;;;;11.75;2.05;;;27.30;99.90;;;;;;4954393;28;20235;-60
2022/07/17 09:37:25;;;;;;;2.90;1.40;;;27.50;99.90;;;;;;4954502;29;20242;-60
2022/07/17 09:39:53;;;;;;;11.20;1.90;;;27.70;99.90;;;;;;4954333;29;20239;-60
2022/07/17 09:42:27;;;;;;;5.28;2.05;;;27.90;99.90;;;;;;4954180;29;20219;-60
2022/07/17 09:45:01;;;;;;;11.10;1.70;;;27.60;99.90;;;;;;4954048;29;20204;-60
2022/07/17 09:47:28;;;;;;;10.70;1.70;;;27.70;99.90;;;;;;4954141;29;20173;-60
2022/07/17 09:49:56;;;;;;;7.97;2.00;;;27.70;99.90;;;;;;4954040;29;20546;-60
2022/07/17 09:52:25;;;;;;;5.50;1.90;;;27.80;99.90;;;;;;4954062;29;20715;-60
2022/07/17 09:54:54;;;;;;;7.53;2.10;;;28.20;99.90;;;;;;4954207;29;20254;-60
2022/07/17 09:57:25;;;;;;;8.73;1.88;;;27.90;99.90;;;;;;4954000;29;20177;-59
2022/07/17 09:59:54;;;;;;;10.77;1.73;;;27.70;99.90;;;;;;4953608;28;20189;-60
2022/07/17 10:02:21;;;;;;;6.47;1.67;;;28.30;99.90;;;;;;4953810;29;20195;-59
2022/07/17 10:04:48;;;;;;;5.30;1.90;;;28.60;99.90;;;;;;4953790;29;20219;-60
2022/07/17 10:07:14;;;;;;;3.95;1.80;;;28.50;99.90;;;;;;4953766;29;20910;-60
2022/07/17 10:09:40;;;;;;;3.38;1.40;;;28.30;99.90;;;;;;4953743;29;20250;-60
2022/07/17 10:12:10;;;;;;;8.27;2.00;;;27.90;99.90;;;;;;4953772;29;20231;-60
2022/07/17 10:14:38;;;;;;;6.35;1.60;;;27.80;99.90;;;;;;4953543;29;20802;-60
2022/07/17 10:17:13;;;;;;;4.75;1.70;;;28.20;99.90;;;;;;4953646;29;20180;-59
2022/07/17 10:19:50;;;;;;;5.45;1.83;;;28.00;99.90;;;;;;4953810;29;20273;-60
2022/07/17 10:22:17;;;;;;;4.00;1.73;;;27.50;99.90;;;;;;4953666;29;20238;-60
2022/07/17 10:24:50;;;;;;;4.82;2.35;;;27.80;99.90;;;;;;4953521;29;20192;-59
2022/07/17 10:27:27;;;;;;;6.22;1.77;;;27.70;99.90;;;;;;4953523;28;20186;-60
2022/07/17 10:30:09;;;;;;;7.90;1.80;;;28.10;99.90;;;;;;4953383;28;20179;-60
2022/07/17 10:32:35;;;;;;;9.10;1.70;;;28.30;99.90;;;;;;4953554;29;20165;-60
2022/07/17 10:35:04;;;;;;;12.55;2.15;;;28.10;99.90;;;;;;4952085;29;20226;-59
2022/07/17 10:37:36;;;;;;;2.45;1.50;;;28.40;99.90;;;;;;4953268;29;20172;-60
2022/07/17 10:40:22;;;;;;;4.40;2.20;;;28.40;99.90;;;;;;4953200;29;20539;-59
2022/07/17 10:43:02;;;;;;;8.48;2.05;;;28.40;99.90;;;;;;4953169;29;20243;-60
2022/07/17 10:45:38;;;;;;;5.68;1.75;;;28.80;99.90;;;;;;4953232;29;20220;-60
2022/07/17 10:48:22;;;;;;;4.72;1.63;;;28.80;99.90;;;;;;4953209;29;20180;-59
2022/07/17 10:50:52;;;;;;;6.40;2.05;;;28.20;99.90;;;;;;4953099;29;20180;-60
2022/07/17 10:53:26;;;;;;;11.68;2.03;;;28.60;99.90;;;;;;4953228;29;20168;-60
2022/07/17 10:56:07;;;;;;;5.00;2.08;;;28.60;99.90;;;;;;4953069;29;20180;-60
2022/07/17 10:58:41;;;;;;;4.63;2.00;;;28.50;99.90;;;;;;4953139;29;20180;-60
2022/07/17 11:01:12;;;;;;;4.00;1.70;;;29.00;99.90;;;;;;4952989;29;20186;-60
2022/07/17 11:03:45;;;;;;;7.28;1.80;;;29.30;99.90;;;;;;4953102;29;20251;-59
2022/07/17 11:06:17;;;;;;;2.90;1.77;;;29.80;99.90;;;;;;4952782;29;20219;-60
2022/07/17 11:08:46;;;;;;;4.25;1.58;;;30.00;99.90;;;;;;4953005;29;20252;-60
2022/07/17 11:11:12;;;;;;;10.18;2.35;;;30.50;99.90;;;;;;4952991;29;20177;-60
2022/07/17 11:13:38;;;;;;;5.60;1.88;;;30.40;99.90;;;;;;4952190;29;20192;-60
2022/07/17 11:16:04;;;;;;;5.60;2.08;;;30.50;99.90;;;;;;4952723;29;20227;-60
2022/07/17 11:18:30;;;;;;;5.97;1.90;;;30.60;99.90;;;;;;4953107;29;20189;-60
2022/07/17 11:20:59;;;;;;;2.17;1.52;;;30.40;99.90;;;;;;4952926;29;20607;-60
2022/07/17 11:23:29;;;;;;;4.18;1.90;;;30.00;99.90;;;;;;4952792;29;20259;-60
2022/07/17 11:26:05;;;;;;;5.65;1.83;;;30.10;99.90;;;;;;4952768;28;20240;-60
2022/07/17 11:28:39;;;;;;;5.93;1.75;;;30.00;99.90;;;;;;4952814;29;20176;-60
2022/07/17 11:31:19;;;;;;;7.97;2.00;;;29.80;99.90;;;;;;4952978;29;20176;-60
2022/07/17 11:34:11;;;;;;;2.92;1.92;;;30.20;99.90;;;;;;4952731;28;20179;-60
2022/07/17 11:36:39;;;;;;;3.38;1.70;;;30.20;99.90;;;;;;4952640;28;20188;-60
2022/07/17 11:39:11;;;;;;;3.28;1.80;;;30.50;99.90;;;;;;4952893;29;20173;-60
2022/07/17 11:41:40;;;;;;;5.47;1.90;;;30.70;99.90;;;;;;4952711;29;20536;-60
2022/07/17 11:44:09;;;;;;;3.30;1.92;;;30.80;99.90;;;;;;4952733;29;20228;-60
2022/07/17 11:46:36;;;;;;;5.18;1.90;;;30.70;99.90;;;;;;4952508;29;20250;-60
2022/07/17 11:49:03;;;;;;;4.45;1.98;;;30.60;99.90;;;;;;4952510;28;20232;-59
2022/07/17 11:51:42;;;;;;;3.30;1.80;;;31.10;99.90;;;;;;4952560;29;20227;-60
2022/07/17 11:54:11;;;;;;;5.63;2.25;;;31.50;99.90;;;;;;4952800;29;20223;-60
2022/07/17 11:56:37;;;;;;;6.40;1.55;;;30.90;99.90;;;;;;4952605;29;20204;-60
2022/07/17 11:59:03;;;;;;;7.38;2.22;;;30.40;99.90;;;;;;4952670;28;20302;-60
2022/07/17 12:01:41;;;;;;;6.82;2.15;;;30.50;99.90;;;;;;4952490;29;20180;-60
2022/07/17 12:04:09;;;;;;;8.30;2.17;;;30.60;99.90;;;;;;4952514;29;20176;-60
2022/07/17 12:06:36;;;;;;;4.93;1.98;;;31.60;99.90;;;;;;4952468;29;20208;-61
2022/07/17 12:09:02;;;;;;;5.82;1.80;;;31.90;99.90;;;;;;4952355;29;20219;-61
2022/07/17 12:11:28;;;;;;;6.07;1.90;;;32.20;99.90;;;;;;4952465;28;20180;-61
2022/07/17 12:13:54;;;;;;;6.05;1.80;;;31.90;99.90;;;;;;4952149;29;20169;-60
2022/07/17 12:16:26;;;;;;;5.93;1.67;;;31.70;99.90;;;;;;4952365;29;20284;-60
2022/07/17 12:19:09;;;;;;;8.60;1.98;;;31.40;99.90;;;;;;4952336;29;20598;-60
2022/07/17 12:21:54;;;;;;;4.85;1.92;;;31.60;99.90;;;;;;4952316;29;20184;-61
2022/07/17 12:24:23;;;;;;;1.85;1.55;;;32.20;99.90;;;;;;4954123;28;20204;-60
2022/07/17 12:26:49;;;;;;;7.50;1.70;;;31.90;99.90;;;;;;4955658;29;20247;-61
2022/07/17 12:29:15;;;;;;;4.70;2.20;;;31.80;99.90;;;;;;4955819;29;20176;-60
2022/07/17 12:31:41;;;;;;;3.50;2.00;;;32.20;99.90;;;;;;4955647;29;20192;-61
2022/07/17 12:34:07;;;;;;;4.30;1.88;;;32.00;99.90;;;;;;4955708;29;20200;-61
2022/07/17 12:36:33;;;;;;;8.60;1.98;;;32.50;99.90;;;;;;4955618;29;20181;-61
2022/07/17 12:38:59;;;;;;;8.57;1.95;;;32.80;99.90;;;;;;4955553;29;20176;-60
2022/07/17 12:41:25;;;;;;;5.00;1.90;;;32.40;99.90;;;;;;4955385;29;20187;-61
2022/07/17 12:43:51;;;;;;;7.38;2.10;;;32.90;99.90;;;;;;4955272;29;20180;-60
2022/07/17 12:46:17;;;;;;;5.15;1.98;;;32.20;99.90;;;;;;4955321;29;20265;-60